Archival Weather

Tokyo Intl

Tokyo Intl, Japan (RJTT)

Report from: Friday, June 24, 2022 6:00 AM JST
Current time: Tuesday, August 16, 2022 9:33 AM JST

Current weather
Weather history
Weather forecast

Temperature24.0°C (75.2°F)
Dew point23.0°C (73.4°F)
Winds 15 kts (7.7 m/s, 17.3 mph) South (190°)
Visibility6.2 mi. (10 km)
Clouds Few clouds 300 ft. (91 m)
Ceiling: Broken clouds 700 ft. (213 m)
Few clouds 800 ft. (244 m)
Broken clouds 1,200 ft. (366 m)
Altimeter29.74 in.Hg (1007 mB)
Relative humidity94 %
Density altitude1,633 ft. (498 m)
Flight conditions Instrument Meteorological Conditions
Raw dataRJTT 232100Z 19015KT 9999 FEW003 BKN007 24/23 Q1007 BECMG FEW008 BKN012 RMK 1ST003 7ST007 A2975
An error has occurred. This application may no longer respond until reloaded. Reload 🗙